Terminal Aerodrome Forecast
Issued by NWS

Home | Current Version | Previous Version | Text Only | Print | Product List | Glossary On
Versions: 1 2 3 4 5 6 7 8 9 10 11 12 13 14 15 16 17 18 19
000
FTUS44 KHGX 261727
TAFUTS
TAF
KUTS 261727Z 2618/2718 23006KT P6SM VCSH FEW030 SCT120
     FM262100 18007KT P6SM VCSH SCT045 SCT250
     FM270100 18003KT P6SM SCT250
     FM271600 24004KT P6SM FEW040=

USA.gov is the U.S. government's official web portal to all federal, state and local government web resources and services.